createdAt,value
2018-02-05T00:02:03.617Z,99.9
2018-02-05T00:07:03.331Z,99.9
2018-02-05T00:12:03.545Z,99.9
2018-02-05T00:17:03.662Z,99.9
2018-02-05T00:22:03.261Z,99.9
2018-02-05T00:27:03.383Z,99.9
2018-02-05T00:32:03.611Z,99.9
2018-02-05T00:37:03.500Z,99.9
2018-02-05T00:42:03.507Z,99.9
2018-02-05T00:47:03.596Z,99.9
2018-02-05T00:52:03.083Z,99.9
2018-02-05T00:57:03.238Z,99.9
2018-02-05T01:02:03.426Z,99.9
2018-02-05T01:07:03.252Z,99.9
2018-02-05T01:12:03.403Z,99.9
2018-02-05T01:17:03.500Z,99.9
2018-02-05T01:22:03.688Z,99.9
2018-02-05T01:27:03.817Z,99.9
2018-02-05T01:32:03.812Z,99.9
2018-02-05T01:37:03.445Z,99.9
2018-02-05T01:42:03.495Z,99.9
2018-02-05T01:47:03.509Z,99.9
2018-02-05T01:52:03.694Z,99.9
2018-02-05T01:57:03.669Z,99.9
2018-02-05T02:02:03.894Z,99.9
2018-02-05T02:07:03.181Z,99.9
2018-02-05T02:12:03.454Z,99.9
2018-02-05T02:17:03.610Z,99.9
2018-02-05T02:22:03.072Z,99.9
2018-02-05T02:27:03.287Z,99.9
2018-02-05T02:32:03.336Z,99.9
2018-02-05T02:37:03.399Z,99.9
2018-02-05T02:42:03.467Z,99.9
2018-02-05T02:47:03.531Z,99.9
2018-02-05T02:52:03.099Z,99.9
2018-02-05T02:57:03.223Z,99.9
2018-02-05T03:02:03.394Z,99.9
2018-02-05T03:07:03.390Z,99.9
2018-02-05T03:12:03.555Z,99.9
2018-02-05T03:17:03.601Z,99.9
2018-02-05T03:22:03.706Z,99.9
2018-02-05T03:27:03.815Z,99.9
2018-02-05T03:32:03.875Z,99.9
2018-02-05T03:37:03.702Z,99.9
2018-02-05T03:42:03.778Z,99.9
2018-02-05T03:47:03.857Z,99.9
2018-02-05T03:52:03.074Z,99.9
2018-02-05T03:57:03.155Z,99.9
2018-02-05T04:02:03.312Z,99.9
2018-02-05T04:07:03.562Z,99.9
2018-02-05T04:12:03.803Z,99.9
2018-02-05T04:17:03.972Z,99.9
2018-02-05T04:22:03.120Z,99.9
2018-02-05T04:27:03.351Z,99.9
2018-02-05T04:32:03.482Z,99.9
2018-02-05T04:37:03.532Z,99.9
2018-02-05T04:42:03.614Z,99.9
2018-02-05T04:47:03.775Z,99.9
2018-02-05T04:52:03.850Z,99.9
2018-02-05T04:57:02.982Z,99.9
2018-02-05T05:02:03.332Z,99.9
2018-02-05T05:07:03.408Z,99.9
2018-02-05T05:12:03.666Z,99.9
2018-02-05T05:17:03.864Z,99.9
2018-02-05T05:22:03.986Z,99.9
2018-02-05T05:27:03.176Z,99.9
2018-02-05T05:32:03.334Z,99.9
2018-02-05T05:37:03.418Z,99.9
2018-02-05T05:42:03.561Z,99.9
2018-02-05T05:47:03.592Z,99.9
2018-02-05T05:52:03.643Z,99.9
2018-02-05T05:57:03.652Z,99.9
2018-02-05T06:02:03.843Z,99.9
2018-02-05T06:07:03.869Z,99.9
2018-02-05T06:12:03.216Z,99.9
2018-02-05T06:17:12.704Z,99.9
2018-02-05T06:22:03.565Z,99.9
2018-02-05T06:27:03.859Z,99.9
2018-02-05T06:32:27.830Z,99.9
2018-02-05T06:37:03.643Z,99.9
2018-02-05T06:42:03.741Z,99.9
2018-02-05T06:47:23.632Z,99.9
2018-02-05T06:52:03.799Z,99.9
2018-02-05T06:57:03.182Z,99.9
2018-02-05T07:02:21.932Z,99.9
2018-02-05T07:07:03.729Z,99.9
2018-02-05T07:12:03.116Z,99.9
2018-02-05T07:17:31.652Z,99.9
2018-02-05T07:22:03.697Z,99.9
2018-02-05T07:27:03.848Z,99.9
2018-02-05T07:32:24.387Z,99.9
2018-02-05T07:37:03.095Z,99.9
2018-02-05T07:42:03.262Z,99.9
2018-02-05T07:47:21.850Z,99.9
2018-02-05T07:52:03.640Z,99.9
2018-02-05T07:57:03.799Z,99.9
2018-02-05T08:02:24.160Z,97.4
2018-02-05T08:07:03.297Z,99.9
2018-02-05T08:12:03.562Z,99.9
2018-02-05T08:17:25.197Z,99.9
2018-02-05T08:22:03.952Z,99.9
2018-02-05T08:27:03.164Z,99.9
2018-02-05T08:32:23.973Z,99.9
2018-02-05T08:37:03.522Z,99.9
2018-02-05T08:42:03.730Z,99.9
2018-02-05T08:47:22.438Z,99.9
2018-02-05T08:52:03.011Z,99.9
2018-02-05T08:57:03.234Z,99.9
2018-02-05T09:02:21.996Z,99.9
2018-02-05T09:07:03.797Z,99.9
2018-02-05T09:12:03.992Z,99.9
2018-02-05T09:17:24.973Z,99.9
2018-02-05T09:22:03.439Z,99.9
2018-02-05T09:27:03.674Z,99.9
2018-02-05T09:32:24.154Z,99.9
2018-02-05T09:37:03.041Z,99.9
2018-02-05T09:42:03.255Z,99.9
2018-02-05T09:47:21.844Z,99.9
2018-02-05T09:52:03.727Z,99.9
2018-02-05T09:57:03.937Z,99.9
2018-02-05T10:02:25.449Z,99.9
2018-02-05T10:07:03.141Z,99.9
2018-02-05T10:12:03.382Z,99.9
2018-02-05T10:17:28.109Z,99.9
2018-02-05T10:22:03.845Z,99.9
2018-02-05T10:27:03.886Z,99.9
2018-02-05T10:32:24.546Z,99.9
2018-02-05T10:37:03.216Z,99.9
2018-02-05T10:42:03.376Z,99.9
2018-02-05T10:47:21.985Z,99.9
2018-02-05T10:52:03.754Z,99.9
2018-02-05T10:57:03.913Z,99.9
2018-02-05T11:02:21.589Z,99.9
2018-02-05T11:07:03.498Z,99.9
2018-02-05T11:12:03.904Z,99.9
2018-02-05T11:17:24.825Z,99.9
2018-02-05T11:22:03.100Z,99.9
2018-02-05T11:27:03.332Z,99.9
2018-02-05T11:32:23.735Z,99.9
2018-02-05T11:37:03.670Z,99.9
2018-02-05T11:42:03.877Z,99.9
2018-02-05T11:47:24.426Z,99.9
2018-02-05T11:52:03.211Z,99.9
2018-02-05T11:57:03.452Z,99.9
2018-02-05T12:02:28.166Z,99.9
2018-02-05T12:07:03.910Z,99.9
2018-02-05T12:12:03.363Z,99.9
2018-02-05T12:17:25.244Z,99.9
2018-02-05T12:22:03.822Z,99.9
2018-02-05T12:27:03.970Z,99.9
2018-02-05T12:32:21.400Z,99.9
2018-02-05T12:37:03.246Z,99.9
2018-02-05T12:42:03.416Z,99.9
2018-02-05T12:47:24.226Z,99.9
2018-02-05T12:52:03.896Z,99.9
2018-02-05T12:57:02.980Z,99.9
2018-02-05T13:02:23.562Z,99.9
2018-02-05T13:07:03.747Z,99.9
2018-02-05T13:12:03.846Z,99.9
2018-02-05T13:17:25.173Z,99.9
2018-02-05T13:22:03.339Z,99.9
2018-02-05T13:27:03.578Z,99.9
2018-02-05T13:32:24.525Z,99.9
2018-02-05T13:37:02.964Z,99.9
2018-02-05T13:42:03.119Z,99.9
2018-02-05T13:47:20.003Z,99.9
2018-02-05T13:52:03.508Z,99.9
2018-02-05T13:57:03.803Z,99.9
2018-02-05T14:02:24.309Z,99.9
2018-02-05T14:07:03.290Z,99.9
2018-02-05T14:12:03.572Z,99.9
2018-02-05T14:17:22.237Z,99.9
2018-02-05T14:22:03.865Z,99.9
2018-02-05T14:27:03.080Z,99.9
2018-02-05T14:32:23.763Z,99.9
2018-02-05T14:37:03.557Z,99.9
2018-02-05T14:42:03.660Z,99.9
2018-02-05T14:47:23.736Z,99.9
2018-02-05T14:52:03.416Z,99.9
2018-02-05T14:57:03.571Z,99.9
2018-02-05T15:02:22.767Z,99.9
2018-02-05T15:07:03.103Z,99.9
2018-02-05T15:12:03.359Z,99.9
2018-02-05T15:17:22.969Z,99.8
2018-02-05T15:22:03.431Z,98.2
2018-02-05T15:27:03.606Z,97.2
2018-02-05T15:32:23.192Z,96.8
2018-02-05T15:37:03.930Z,96.6
2018-02-05T15:42:03.005Z,95.9
2018-02-05T15:47:21.980Z,94.9
2018-02-05T15:52:03.366Z,95.0
2018-02-05T15:57:03.483Z,95.0
2018-02-05T16:02:23.886Z,96.4
2018-02-05T16:07:03.853Z,97.7
2018-02-05T16:12:03.239Z,97.6
2018-02-05T16:17:24.595Z,99.9
2018-02-05T16:22:03.669Z,99.9
2018-02-05T16:27:04.094Z,99.9
2018-02-05T16:32:24.351Z,99.9
2018-02-05T16:37:03.656Z,99.9
2018-02-05T16:42:03.162Z,99.9
2018-02-05T16:47:21.514Z,99.9
2018-02-05T16:52:03.447Z,99.9
2018-02-05T16:57:03.559Z,99.9
2018-02-05T17:02:17.105Z,99.9
2018-02-05T17:07:03.148Z,99.9
2018-02-05T17:12:03.522Z,99.9
2018-02-05T17:17:03.899Z,99.9
2018-02-05T17:22:03.818Z,99.9
2018-02-05T17:27:03.989Z,99.9
2018-02-05T17:32:03.140Z,99.9
2018-02-05T17:37:03.346Z,99.9
2018-02-05T17:42:03.375Z,99.9
2018-02-05T17:47:03.532Z,99.9
2018-02-05T17:52:03.586Z,99.9
2018-02-05T17:57:03.680Z,99.9
2018-02-05T18:02:03.841Z,99.9
2018-02-05T18:07:03.109Z,99.9
2018-02-05T18:12:03.323Z,99.9
2018-02-05T18:17:03.592Z,99.9
2018-02-05T18:22:03.653Z,99.9
2018-02-05T18:27:03.646Z,99.9
2018-02-05T18:32:03.747Z,99.9
2018-02-05T18:37:03.912Z,99.9
2018-02-05T18:42:03.024Z,99.9
2018-02-05T18:47:03.252Z,99.9
2018-02-05T18:52:03.394Z,99.9
2018-02-05T18:57:03.396Z,99.9
2018-02-05T19:02:03.572Z,99.9
2018-02-05T19:07:03.733Z,99.9
2018-02-05T19:12:03.037Z,99.9
2018-02-05T19:17:03.495Z,99.9
2018-02-05T19:22:03.551Z,99.9
2018-02-05T19:27:03.650Z,99.9
2018-02-05T19:32:03.655Z,99.9
2018-02-05T19:37:03.759Z,99.9
2018-02-05T19:42:03.769Z,99.9
2018-02-05T19:47:03.925Z,99.9
2018-02-05T19:52:03.069Z,99.9
2018-02-05T19:57:03.180Z,99.9
2018-02-05T20:02:03.417Z,99.9
2018-02-05T20:07:03.514Z,99.9
2018-02-05T20:12:03.790Z,99.9
2018-02-05T20:17:03.935Z,99.9
2018-02-05T20:22:03.095Z,99.9
2018-02-05T20:27:03.211Z,99.9
2018-02-05T20:32:03.370Z,99.9
2018-02-05T20:37:03.591Z,99.9
2018-02-05T20:42:03.533Z,99.9
2018-02-05T20:47:03.688Z,99.9
2018-02-05T20:52:03.815Z,99.9
2018-02-05T20:57:04.047Z,99.9
2018-02-05T21:02:03.350Z,99.9
2018-02-05T21:07:03.363Z,99.9
2018-02-05T21:12:03.716Z,99.9
2018-02-05T21:17:04.313Z,99.9
2018-02-05T21:22:03.103Z,99.9
2018-02-05T21:27:03.289Z,99.9
2018-02-05T21:32:03.423Z,99.9
2018-02-05T21:37:03.503Z,99.9
2018-02-05T21:42:03.547Z,99.9
2018-02-05T21:47:03.655Z,99.9
2018-02-05T21:52:03.749Z,99.9
2018-02-05T21:57:03.745Z,99.9
2018-02-05T22:02:03.899Z,99.9
2018-02-05T22:07:03.276Z,99.9
2018-02-05T22:12:03.599Z,99.9
2018-02-05T22:17:03.699Z,99.9
2018-02-05T22:22:03.860Z,99.9
2018-02-05T22:27:04.054Z,99.9
2018-02-05T22:32:03.176Z,99.9
2018-02-05T22:37:03.286Z,99.9
2018-02-05T22:42:03.393Z,99.9
2018-02-05T22:47:03.560Z,99.9
2018-02-05T22:52:03.629Z,99.9
2018-02-05T22:57:03.681Z,99.9
2018-02-05T23:02:03.923Z,99.9
2018-02-05T23:07:03.756Z,99.9
2018-02-05T23:12:03.960Z,99.9
2018-02-05T23:22:03.881Z,99.9
2018-02-05T23:27:03.592Z,99.9
2018-02-05T23:32:03.716Z,99.9
2018-02-05T23:37:03.820Z,99.9
2018-02-05T23:42:03.789Z,99.9
2018-02-05T23:47:03.844Z,99.9
2018-02-05T23:52:03.415Z,99.9
2018-02-05T23:57:03.478Z,99.9
